sensor_id;sensor_type;location;lat;lon;timestamp;P1;durP1;ratioP1;P2;durP2;ratioP2
46028;SDS011;31763;48.180;7.904;2024-03-23T00:54:17;2.80;;;1.58;;
46028;SDS011;31763;48.180;7.904;2024-03-23T00:56:43;3.78;;;1.67;;
46028;SDS011;31763;48.180;7.904;2024-03-23T00:59:09;2.75;;;1.38;;
46028;SDS011;31763;48.180;7.904;2024-03-23T01:01:37;1.85;;;1.38;;
46028;SDS011;31763;48.180;7.904;2024-03-23T01:04:03;3.28;;;1.63;;
46028;SDS011;31763;48.180;7.904;2024-03-23T01:06:29;2.38;;;1.45;;
46028;SDS011;31763;48.180;7.904;2024-03-23T01:08:55;1.42;;;1.10;;
46028;SDS011;31763;48.180;7.904;2024-03-23T01:11:22;2.05;;;1.23;;
46028;SDS011;31763;48.180;7.904;2024-03-23T01:13:48;3.75;;;1.67;;
46028;SDS011;31763;48.180;7.904;2024-03-23T01:16:14;3.65;;;1.45;;
46028;SDS011;31763;48.180;7.904;2024-03-23T01:18:40;1.30;;;1.15;;
46028;SDS011;31763;48.180;7.904;2024-03-23T01:21:07;2.75;;;1.33;;
46028;SDS011;31763;48.180;7.904;2024-03-23T01:23:33;1.58;;;0.90;;
46028;SDS011;31763;48.180;7.904;2024-03-23T01:25:59;5.45;;;1.60;;
46028;SDS011;31763;48.180;7.904;2024-03-23T01:28:26;1.67;;;1.58;;
46028;SDS011;31763;48.180;7.904;2024-03-23T01:30:52;1.00;;;0.90;;
46028;SDS011;31763;48.180;7.904;2024-03-23T01:33:18;8.20;;;2.03;;
46028;SDS011;31763;48.180;7.904;2024-03-23T01:35:44;2.78;;;1.52;;
46028;SDS011;31763;48.180;7.904;2024-03-23T01:38:11;5.97;;;1.80;;
46028;SDS011;31763;48.180;7.904;2024-03-23T01:40:37;3.10;;;1.60;;
46028;SDS011;31763;48.180;7.904;2024-03-23T01:43:04;2.13;;;1.63;;
46028;SDS011;31763;48.180;7.904;2024-03-23T01:45:33;1.45;;;1.27;;
46028;SDS011;31763;48.180;7.904;2024-03-23T01:48:00;7.63;;;2.35;;
46028;SDS011;31763;48.180;7.904;2024-03-23T01:50:26;3.75;;;1.67;;
46028;SDS011;31763;48.180;7.904;2024-03-23T01:52:53;3.92;;;1.90;;
46028;SDS011;31763;48.180;7.904;2024-03-23T01:55:20;2.92;;;1.95;;
46028;SDS011;31763;48.180;7.904;2024-03-23T01:57:46;1.27;;;1.08;;
46028;SDS011;31763;48.180;7.904;2024-03-23T02:00:13;2.03;;;1.60;;
46028;SDS011;31763;48.180;7.904;2024-03-23T02:02:43;4.47;;;1.80;;
46028;SDS011;31763;48.180;7.904;2024-03-23T02:05:13;2.67;;;1.70;;
46028;SDS011;31763;48.180;7.904;2024-03-23T02:07:40;1.98;;;1.80;;
46028;SDS011;31763;48.180;7.904;2024-03-23T02:10:07;4.22;;;1.80;;
46028;SDS011;31763;48.180;7.904;2024-03-23T02:12:35;1.52;;;1.38;;
46028;SDS011;31763;48.180;7.904;2024-03-23T02:15:02;3.03;;;1.73;;
46028;SDS011;31763;48.180;7.904;2024-03-23T02:17:32;1.27;;;1.08;;
46028;SDS011;31763;48.180;7.904;2024-03-23T02:19:59;3.30;;;1.50;;
46028;SDS011;31763;48.180;7.904;2024-03-23T02:22:38;2.28;;;1.67;;
46028;SDS011;31763;48.180;7.904;2024-03-23T02:25:05;2.28;;;1.60;;
46028;SDS011;31763;48.180;7.904;2024-03-23T02:27:32;4.25;;;1.63;;
46028;SDS011;31763;48.180;7.904;2024-03-23T02:30:00;4.25;;;1.77;;
46028;SDS011;31763;48.180;7.904;2024-03-23T02:32:26;1.90;;;1.52;;
46028;SDS011;31763;48.180;7.904;2024-03-23T02:34:52;2.53;;;1.70;;
46028;SDS011;31763;48.180;7.904;2024-03-23T02:37:18;3.95;;;1.95;;
46028;SDS011;31763;48.180;7.904;2024-03-23T02:39:45;2.75;;;1.92;;
46028;SDS011;31763;48.180;7.904;2024-03-23T02:42:11;4.53;;;1.92;;
46028;SDS011;31763;48.180;7.904;2024-03-23T02:44:37;2.17;;;1.88;;
46028;SDS011;31763;48.180;7.904;2024-03-23T02:47:04;2.85;;;1.67;;
46028;SDS011;31763;48.180;7.904;2024-03-23T02:49:31;5.18;;;2.35;;
46028;SDS011;31763;48.180;7.904;2024-03-23T02:51:57;1.65;;;1.55;;
46028;SDS011;31763;48.180;7.904;2024-03-23T02:54:23;3.28;;;2.13;;
46028;SDS011;31763;48.180;7.904;2024-03-23T02:56:49;2.40;;;1.60;;
46028;SDS011;31763;48.180;7.904;2024-03-23T02:59:16;6.32;;;2.63;;
46028;SDS011;31763;48.180;7.904;2024-03-23T03:01:42;2.10;;;1.67;;
46028;SDS011;31763;48.180;7.904;2024-03-23T03:04:08;2.47;;;1.48;;
46028;SDS011;31763;48.180;7.904;2024-03-23T03:06:35;2.53;;;2.15;;
46028;SDS011;31763;48.180;7.904;2024-03-23T03:09:01;3.42;;;2.03;;
46028;SDS011;31763;48.180;7.904;2024-03-23T03:11:27;4.80;;;2.15;;
46028;SDS011;31763;48.180;7.904;2024-03-23T03:13:54;4.50;;;2.05;;
46028;SDS011;31763;48.180;7.904;2024-03-23T03:16:20;3.78;;;2.53;;
46028;SDS011;31763;48.180;7.904;2024-03-23T03:18:46;5.55;;;2.80;;
46028;SDS011;31763;48.180;7.904;2024-03-23T03:21:13;8.02;;;2.92;;
46028;SDS011;31763;48.180;7.904;2024-03-23T03:23:39;4.05;;;2.92;;
46028;SDS011;31763;48.180;7.904;2024-03-23T03:26:05;4.03;;;2.20;;
46028;SDS011;31763;48.180;7.904;2024-03-23T03:28:32;2.70;;;2.22;;
46028;SDS011;31763;48.180;7.904;2024-03-23T03:30:58;5.00;;;2.28;;
46028;SDS011;31763;48.180;7.904;2024-03-23T03:33:26;8.30;;;2.20;;
46028;SDS011;31763;48.180;7.904;2024-03-23T03:35:52;3.83;;;2.08;;
46028;SDS011;31763;48.180;7.904;2024-03-23T03:38:19;3.50;;;1.38;;
46028;SDS011;31763;48.180;7.904;2024-03-23T03:40:46;8.50;;;1.23;;
46028;SDS011;31763;48.180;7.904;2024-03-23T03:43:12;1.85;;;1.27;;
46028;SDS011;31763;48.180;7.904;2024-03-23T03:45:39;3.30;;;1.83;;
46028;SDS011;31763;48.180;7.904;2024-03-23T03:48:06;3.90;;;2.67;;
46028;SDS011;31763;48.180;7.904;2024-03-23T03:50:33;4.45;;;2.28;;
46028;SDS011;31763;48.180;7.904;2024-03-23T03:52:59;1.67;;;1.10;;
46028;SDS011;31763;48.180;7.904;2024-03-23T03:55:25;4.25;;;2.17;;
46028;SDS011;31763;48.180;7.904;2024-03-23T03:57:52;3.72;;;2.55;;
46028;SDS011;31763;48.180;7.904;2024-03-23T04:00:19;3.05;;;2.10;;
46028;SDS011;31763;48.180;7.904;2024-03-23T04:02:45;4.95;;;2.60;;
46028;SDS011;31763;48.180;7.904;2024-03-23T04:05:12;3.42;;;2.40;;
46028;SDS011;31763;48.180;7.904;2024-03-23T04:07:38;4.18;;;2.28;;
46028;SDS011;31763;48.180;7.904;2024-03-23T04:10:05;5.47;;;2.80;;
46028;SDS011;31763;48.180;7.904;2024-03-23T04:12:33;3.30;;;2.05;;
46028;SDS011;31763;48.180;7.904;2024-03-23T04:14:59;3.40;;;1.90;;
46028;SDS011;31763;48.180;7.904;2024-03-23T04:17:29;5.18;;;3.45;;
46028;SDS011;31763;48.180;7.904;2024-03-23T04:19:57;4.63;;;2.10;;
46028;SDS011;31763;48.180;7.904;2024-03-23T04:22:24;5.18;;;3.03;;
46028;SDS011;31763;48.180;7.904;2024-03-23T04:24:54;8.93;;;3.83;;
46028;SDS011;31763;48.180;7.904;2024-03-23T04:27:22;7.35;;;2.92;;
46028;SDS011;31763;48.180;7.904;2024-03-23T04:29:49;4.00;;;2.30;;
46028;SDS011;31763;48.180;7.904;2024-03-23T04:32:15;6.88;;;3.40;;
46028;SDS011;31763;48.180;7.904;2024-03-23T04:34:43;6.40;;;3.15;;
46028;SDS011;31763;48.180;7.904;2024-03-23T04:37:09;6.82;;;2.53;;
46028;SDS011;31763;48.180;7.904;2024-03-23T04:39:36;6.85;;;3.20;;
46028;SDS011;31763;48.180;7.904;2024-03-23T04:42:03;6.45;;;4.30;;
46028;SDS011;31763;48.180;7.904;2024-03-23T04:44:29;8.93;;;4.32;;
46028;SDS011;31763;48.180;7.904;2024-03-23T04:46:56;7.38;;;4.93;;
46028;SDS011;31763;48.180;7.904;2024-03-23T04:49:23;9.77;;;7.10;;
46028;SDS011;31763;48.180;7.904;2024-03-23T04:51:49;11.75;;;7.18;;
46028;SDS011;31763;48.180;7.904;2024-03-23T04:54:15;10.05;;;7.38;;
46028;SDS011;31763;48.180;7.904;2024-03-23T04:56:42;13.18;;;9.02;;
46028;SDS011;31763;48.180;7.904;2024-03-23T04:59:08;14.23;;;9.85;;
46028;SDS011;31763;48.180;7.904;2024-03-23T05:01:34;16.80;;;10.60;;
46028;SDS011;31763;48.180;7.904;2024-03-23T05:04:03;17.88;;;10.35;;
46028;SDS011;31763;48.180;7.904;2024-03-23T05:06:30;11.85;;;8.73;;
46028;SDS011;31763;48.180;7.904;2024-03-23T05:08:56;13.18;;;9.73;;
46028;SDS011;31763;48.180;7.904;2024-03-23T05:11:23;16.15;;;10.27;;
46028;SDS011;31763;48.180;7.904;2024-03-23T05:13:49;14.63;;;10.10;;
46028;SDS011;31763;48.180;7.904;2024-03-23T05:16:16;13.43;;;10.18;;
46028;SDS011;31763;48.180;7.904;2024-03-23T05:18:42;14.60;;;10.20;;
46028;SDS011;31763;48.180;7.904;2024-03-23T05:21:08;15.07;;;10.95;;
46028;SDS011;31763;48.180;7.904;2024-03-23T05:23:35;18.65;;;11.00;;
46028;SDS011;31763;48.180;7.904;2024-03-23T05:26:01;16.88;;;11.52;;
46028;SDS011;31763;48.180;7.904;2024-03-23T05:28:28;15.05;;;10.57;;
46028;SDS011;31763;48.180;7.904;2024-03-23T05:30:54;15.82;;;10.75;;
46028;SDS011;31763;48.180;7.904;2024-03-23T05:33:22;16.15;;;11.20;;
46028;SDS011;31763;48.180;7.904;2024-03-23T05:35:55;18.65;;;11.50;;
46028;SDS011;31763;48.180;7.904;2024-03-23T05:38:22;16.17;;;11.13;;
46028;SDS011;31763;48.180;7.904;2024-03-23T05:40:55;15.00;;;11.18;;
46028;SDS011;31763;48.180;7.904;2024-03-23T05:43:22;16.30;;;11.40;;
46028;SDS011;31763;48.180;7.904;2024-03-23T05:45:55;15.80;;;11.07;;
46028;SDS011;31763;48.180;7.904;2024-03-23T05:48:22;18.38;;;11.15;;
46028;SDS011;31763;48.180;7.904;2024-03-23T05:50:49;23.55;;;13.55;;
46028;SDS011;31763;48.180;7.904;2024-03-23T05:53:15;21.52;;;12.23;;
46028;SDS011;31763;48.180;7.904;2024-03-23T05:55:42;20.02;;;12.85;;
46028;SDS011;31763;48.180;7.904;2024-03-23T05:58:09;23.42;;;13.65;;
46028;SDS011;31763;48.180;7.904;2024-03-23T06:00:35;22.38;;;13.25;;
46028;SDS011;31763;48.180;7.904;2024-03-23T06:03:01;20.38;;;12.52;;
46028;SDS011;31763;48.180;7.904;2024-03-23T06:05:28;17.05;;;11.70;;
46028;SDS011;31763;48.180;7.904;2024-03-23T06:07:54;18.48;;;11.48;;
46028;SDS011;31763;48.180;7.904;2024-03-23T06:10:20;14.20;;;8.48;;
46028;SDS011;31763;48.180;7.904;2024-03-23T06:12:47;15.25;;;9.07;;
46028;SDS011;31763;48.180;7.904;2024-03-23T06:15:14;11.60;;;6.53;;
46028;SDS011;31763;48.180;7.904;2024-03-23T06:17:40;9.27;;;6.72;;
46028;SDS011;31763;48.180;7.904;2024-03-23T06:20:07;5.43;;;3.55;;
46028;SDS011;31763;48.180;7.904;2024-03-23T06:22:33;17.98;;;10.20;;
46028;SDS011;31763;48.180;7.904;2024-03-23T06:25:00;12.73;;;7.05;;
46028;SDS011;31763;48.180;7.904;2024-03-23T06:27:26;6.30;;;4.22;;
46028;SDS011;31763;48.180;7.904;2024-03-23T06:29:52;10.50;;;6.38;;
46028;SDS011;31763;48.180;7.904;2024-03-23T06:32:18;7.10;;;3.25;;
46028;SDS011;31763;48.180;7.904;2024-03-23T06:34:45;5.30;;;3.20;;
46028;SDS011;31763;48.180;7.904;2024-03-23T06:37:11;4.43;;;2.17;;
46028;SDS011;31763;48.180;7.904;2024-03-23T06:39:38;2.60;;;1.52;;
46028;SDS011;31763;48.180;7.904;2024-03-23T06:42:04;1.58;;;0.88;;
46028;SDS011;31763;48.180;7.904;2024-03-23T06:44:31;1.90;;;0.75;;
46028;SDS011;31763;48.180;7.904;2024-03-23T06:46:57;0.93;;;0.50;;
46028;SDS011;31763;48.180;7.904;2024-03-23T06:49:24;0.77;;;0.40;;
46028;SDS011;31763;48.180;7.904;2024-03-23T06:51:50;1.30;;;0.47;;
46028;SDS011;31763;48.180;7.904;2024-03-23T06:54:17;1.85;;;0.40;;
46028;SDS011;31763;48.180;7.904;2024-03-23T06:56:44;0.30;;;0.30;;
46028;SDS011;31763;48.180;7.904;2024-03-23T06:59:10;0.50;;;0.28;;
46028;SDS011;31763;48.180;7.904;2024-03-23T07:01:37;0.57;;;0.30;;
46028;SDS011;31763;48.180;7.904;2024-03-23T07:04:03;0.17;;;0.17;;
46028;SDS011;31763;48.180;7.904;2024-03-23T07:06:30;0.20;;;0.20;;
46028;SDS011;31763;48.180;7.904;2024-03-23T07:08:56;0.55;;;0.20;;
46028;SDS011;31763;48.180;7.904;2024-03-23T07:11:23;0.63;;;0.30;;
46028;SDS011;31763;48.180;7.904;2024-03-23T07:13:50;0.35;;;0.30;;
46028;SDS011;31763;48.180;7.904;2024-03-23T07:16:17;0.75;;;0.43;;
46028;SDS011;31763;48.180;7.904;2024-03-23T07:18:43;0.73;;;0.20;;
46028;SDS011;31763;48.180;7.904;2024-03-23T07:21:10;0.68;;;0.20;;
46028;SDS011;31763;48.180;7.904;2024-03-23T07:23:36;0.10;;;0.10;;
46028;SDS011;31763;48.180;7.904;2024-03-23T07:26:03;0.30;;;0.30;;
46028;SDS011;31763;48.180;7.904;2024-03-23T07:28:33;0.30;;;0.30;;
46028;SDS011;31763;48.180;7.904;2024-03-23T07:33:28;0.52;;;0.30;;
46028;SDS011;31763;48.180;7.904;2024-03-23T07:35:54;1.98;;;0.40;;
46028;SDS011;31763;48.180;7.904;2024-03-23T07:38:21;0.88;;;0.35;;
46028;SDS011;31763;48.180;7.904;2024-03-23T07:40:47;0.50;;;0.40;;
46028;SDS011;31763;48.180;7.904;2024-03-23T07:43:21;1.02;;;0.40;;
46028;SDS011;31763;48.180;7.904;2024-03-23T07:45:53;3.38;;;0.50;;
46028;SDS011;31763;48.180;7.904;2024-03-23T07:48:21;3.45;;;0.80;;
46028;SDS011;31763;48.180;7.904;2024-03-23T07:51:01;2.58;;;0.75;;
46028;SDS011;31763;48.180;7.904;2024-03-23T07:53:34;3.22;;;0.70;;
46028;SDS011;31763;48.180;7.904;2024-03-23T07:56:05;4.55;;;0.88;;
46028;SDS011;31763;48.180;7.904;2024-03-23T07:58:33;1.92;;;0.63;;
46028;SDS011;31763;48.180;7.904;2024-03-23T08:01:06;1.30;;;0.50;;
46028;SDS011;31763;48.180;7.904;2024-03-23T08:03:45;5.10;;;1.00;;
46028;SDS011;31763;48.180;7.904;2024-03-23T08:06:15;2.42;;;0.82;;
46028;SDS011;31763;48.180;7.904;2024-03-23T08:08:43;6.88;;;1.33;;
46028;SDS011;31763;48.180;7.904;2024-03-23T08:11:10;5.40;;;1.42;;
46028;SDS011;31763;48.180;7.904;2024-03-23T08:13:38;1.35;;;0.80;;
46028;SDS011;31763;48.180;7.904;2024-03-23T08:16:05;3.17;;;1.95;;
46028;SDS011;31763;48.180;7.904;2024-03-23T08:18:32;8.32;;;3.40;;
46028;SDS011;31763;48.180;7.904;2024-03-23T08:20:58;17.30;;;5.97;;
46028;SDS011;31763;48.180;7.904;2024-03-23T08:23:29;13.60;;;6.75;;
46028;SDS011;31763;48.180;7.904;2024-03-23T08:26:00;6.18;;;2.40;;
46028;SDS011;31763;48.180;7.904;2024-03-23T08:28:26;6.00;;;2.30;;
46028;SDS011;31763;48.180;7.904;2024-03-23T08:30:53;4.03;;;2.25;;
46028;SDS011;31763;48.180;7.904;2024-03-23T08:33:21;8.73;;;2.65;;
46028;SDS011;31763;48.180;7.904;2024-03-23T08:35:55;7.38;;;2.42;;
46028;SDS011;31763;48.180;7.904;2024-03-23T08:38:23;5.68;;;2.40;;
46028;SDS011;31763;48.180;7.904;2024-03-23T08:40:56;10.98;;;3.33;;
46028;SDS011;31763;48.180;7.904;2024-03-23T08:43:23;10.30;;;3.20;;
46028;SDS011;31763;48.180;7.904;2024-03-23T08:45:50;8.50;;;2.50;;
46028;SDS011;31763;48.180;7.904;2024-03-23T08:48:17;7.40;;;2.38;;
46028;SDS011;31763;48.180;7.904;2024-03-23T08:50:46;6.63;;;2.58;;
46028;SDS011;31763;48.180;7.904;2024-03-23T08:53:22;12.18;;;3.60;;
46028;SDS011;31763;48.180;7.904;2024-03-23T08:55:55;6.85;;;3.05;;
46028;SDS011;31763;48.180;7.904;2024-03-23T08:58:23;9.45;;;3.03;;
46028;SDS011;31763;48.180;7.904;2024-03-23T09:00:53;12.13;;;3.33;;
46028;SDS011;31763;48.180;7.904;2024-03-23T09:03:23;8.57;;;3.38;;
46028;SDS011;31763;48.180;7.904;2024-03-23T09:05:53;11.32;;;3.60;;
46028;SDS011;31763;48.180;7.904;2024-03-23T09:08:21;4.35;;;2.05;;
46028;SDS011;31763;48.180;7.904;2024-03-23T09:10:47;20.95;;;8.88;;
46028;SDS011;31763;48.180;7.904;2024-03-23T09:13:14;14.23;;;4.15;;
46028;SDS011;31763;48.180;7.904;2024-03-23T09:15:51;16.90;;;3.70;;
46028;SDS011;31763;48.180;7.904;2024-03-23T09:18:21;15.50;;;3.15;;
46028;SDS011;31763;48.180;7.904;2024-03-23T09:20:49;7.05;;;3.15;;
46028;SDS011;31763;48.180;7.904;2024-03-23T09:23:15;8.75;;;3.20;;
46028;SDS011;31763;48.180;7.904;2024-03-23T09:25:41;11.20;;;3.25;;
46028;SDS011;31763;48.180;7.904;2024-03-23T09:28:08;11.00;;;3.20;;
46028;SDS011;31763;48.180;7.904;2024-03-23T09:30:34;11.00;;;3.60;;
46028;SDS011;31763;48.180;7.904;2024-03-23T09:33:02;6.85;;;2.45;;
46028;SDS011;31763;48.180;7.904;2024-03-23T09:35:29;12.60;;;3.60;;
46028;SDS011;31763;48.180;7.904;2024-03-23T09:37:55;6.22;;;3.03;;
46028;SDS011;31763;48.180;7.904;2024-03-23T09:40:22;9.73;;;3.00;;
46028;SDS011;31763;48.180;7.904;2024-03-23T09:42:51;11.32;;;3.83;;
46028;SDS011;31763;48.180;7.904;2024-03-23T09:45:21;7.32;;;3.30;;
46028;SDS011;31763;48.180;7.904;2024-03-23T09:47:54;10.30;;;2.38;;
46028;SDS011;31763;48.180;7.904;2024-03-23T09:50:21;6.97;;;2.58;;
46028;SDS011;31763;48.180;7.904;2024-03-23T09:52:48;10.48;;;3.08;;
46028;SDS011;31763;48.180;7.904;2024-03-23T09:55:14;8.85;;;3.05;;
46028;SDS011;31763;48.180;7.904;2024-03-23T09:57:41;6.47;;;2.40;;
46028;SDS011;31763;48.180;7.904;2024-03-23T10:00:08;8.13;;;2.10;;
46028;SDS011;31763;48.180;7.904;2024-03-23T10:02:35;8.32;;;2.65;;
46028;SDS011;31763;48.180;7.904;2024-03-23T10:05:02;10.10;;;2.53;;
46028;SDS011;31763;48.180;7.904;2024-03-23T10:07:29;9.55;;;2.58;;
46028;SDS011;31763;48.180;7.904;2024-03-23T10:09:55;6.70;;;2.58;;
46028;SDS011;31763;48.180;7.904;2024-03-23T10:12:22;11.40;;;2.15;;
46028;SDS011;31763;48.180;7.904;2024-03-23T10:14:49;11.38;;;2.70;;
46028;SDS011;31763;48.180;7.904;2024-03-23T10:17:16;21.15;;;10.93;;
46028;SDS011;31763;48.180;7.904;2024-03-23T10:19:51;10.35;;;3.20;;
46028;SDS011;31763;48.180;7.904;2024-03-23T10:22:18;10.00;;;2.17;;
46028;SDS011;31763;48.180;7.904;2024-03-23T10:24:50;7.40;;;2.22;;
46028;SDS011;31763;48.180;7.904;2024-03-23T10:27:17;4.50;;;1.83;;
46028;SDS011;31763;48.180;7.904;2024-03-23T10:29:44;9.82;;;2.50;;
46028;SDS011;31763;48.180;7.904;2024-03-23T10:32:11;5.18;;;1.95;;
46028;SDS011;31763;48.180;7.904;2024-03-23T10:34:38;4.68;;;1.70;;
46028;SDS011;31763;48.180;7.904;2024-03-23T10:37:05;3.55;;;0.57;;
46028;SDS011;31763;48.180;7.904;2024-03-23T10:42:07;2.97;;;1.17;;
46028;SDS011;31763;48.180;7.904;2024-03-23T10:44:37;2.53;;;0.90;;
46028;SDS011;31763;48.180;7.904;2024-03-23T10:47:04;3.40;;;1.33;;
46028;SDS011;31763;48.180;7.904;2024-03-23T10:49:34;2.22;;;1.00;;
46028;SDS011;31763;48.180;7.904;2024-03-23T10:52:04;4.32;;;1.27;;
46028;SDS011;31763;48.180;7.904;2024-03-23T10:54:31;5.93;;;1.20;;
46028;SDS011;31763;48.180;7.904;2024-03-23T10:59:32;4.68;;;1.75;;
46028;SDS011;31763;48.180;7.904;2024-03-23T11:02:00;3.88;;;1.50;;
46028;SDS011;31763;48.180;7.904;2024-03-23T11:04:32;6.40;;;1.30;;
46028;SDS011;31763;48.180;7.904;2024-03-23T11:07:00;3.97;;;1.58;;
46028;SDS011;31763;48.180;7.904;2024-03-23T11:09:38;3.72;;;2.60;;
46028;SDS011;31763;48.180;7.904;2024-03-23T11:14:47;3.47;;;1.25;;
46028;SDS011;31763;48.180;7.904;2024-03-23T11:17:17;4.70;;;1.50;;
46028;SDS011;31763;48.180;7.904;2024-03-23T11:19:52;3.85;;;1.30;;
46028;SDS011;31763;48.180;7.904;2024-03-23T11:25:16;3.42;;;1.20;;
46028;SDS011;31763;48.180;7.904;2024-03-23T11:27:43;23.42;;;3.97;;
46028;SDS011;31763;48.180;7.904;2024-03-23T11:32:54;6.97;;;2.50;;
46028;SDS011;31763;48.180;7.904;2024-03-23T11:35:27;2.97;;;1.13;;
46028;SDS011;31763;48.180;7.904;2024-03-23T11:38:07;6.53;;;2.38;;
46028;SDS011;31763;48.180;7.904;2024-03-23T11:43:08;8.57;;;2.35;;
46028;SDS011;31763;48.180;7.904;2024-03-23T11:45:42;10.35;;;2.72;;
46028;SDS011;31763;48.180;7.904;2024-03-23T11:48:12;5.82;;;1.80;;
46028;SDS011;31763;48.180;7.904;2024-03-23T11:50:44;8.27;;;1.60;;
46028;SDS011;31763;48.180;7.904;2024-03-23T11:53:16;8.10;;;3.08;;
46028;SDS011;31763;48.180;7.904;2024-03-23T11:55:47;3.65;;;1.60;;
46028;SDS011;31763;48.180;7.904;2024-03-23T11:58:14;8.77;;;2.05;;
46028;SDS011;31763;48.180;7.904;2024-03-23T12:00:49;12.73;;;2.88;;
46028;SDS011;31763;48.180;7.904;2024-03-23T12:03:18;6.75;;;1.50;;
46028;SDS011;31763;48.180;7.904;2024-03-23T12:05:54;3.50;;;1.92;;
46028;SDS011;31763;48.180;7.904;2024-03-23T12:08:22;4.38;;;1.33;;
46028;SDS011;31763;48.180;7.904;2024-03-23T12:10:52;15.88;;;6.47;;
46028;SDS011;31763;48.180;7.904;2024-03-23T12:13:29;4.68;;;1.35;;
46028;SDS011;31763;48.180;7.904;2024-03-23T12:15:57;2.83;;;1.13;;
46028;SDS011;31763;48.180;7.904;2024-03-23T12:18:39;3.10;;;1.27;;
46028;SDS011;31763;48.180;7.904;2024-03-23T12:21:06;4.82;;;1.85;;
46028;SDS011;31763;48.180;7.904;2024-03-23T12:23:33;2.28;;;1.15;;
46028;SDS011;31763;48.180;7.904;2024-03-23T12:25:59;5.88;;;1.90;;
46028;SDS011;31763;48.180;7.904;2024-03-23T12:28:26;4.93;;;1.52;;
46028;SDS011;31763;48.180;7.904;2024-03-23T12:30:53;7.57;;;2.15;;
46028;SDS011;31763;48.180;7.904;2024-03-23T12:33:20;4.13;;;2.05;;
46028;SDS011;31763;48.180;7.904;2024-03-23T12:35:47;6.20;;;1.55;;
46028;SDS011;31763;48.180;7.904;2024-03-23T12:38:16;7.53;;;1.90;;
46028;SDS011;31763;48.180;7.904;2024-03-23T12:40:46;4.72;;;1.50;;
46028;SDS011;31763;48.180;7.904;2024-03-23T12:43:16;5.40;;;1.90;;
46028;SDS011;31763;48.180;7.904;2024-03-23T12:45:49;3.03;;;1.77;;
46028;SDS011;31763;48.180;7.904;2024-03-23T12:48:16;4.55;;;1.73;;
46028;SDS011;31763;48.180;7.904;2024-03-23T12:50:42;4.38;;;1.02;;
46028;SDS011;31763;48.180;7.904;2024-03-23T12:53:08;5.72;;;1.00;;
46028;SDS011;31763;48.180;7.904;2024-03-23T12:55:35;2.78;;;0.90;;
46028;SDS011;31763;48.180;7.904;2024-03-23T12:58:01;5.32;;;1.15;;
46028;SDS011;31763;48.180;7.904;2024-03-23T13:00:28;7.90;;;1.13;;
46028;SDS011;31763;48.180;7.904;2024-03-23T13:02:54;4.25;;;0.80;;
46028;SDS011;31763;48.180;7.904;2024-03-23T13:05:21;4.05;;;0.88;;
46028;SDS011;31763;48.180;7.904;2024-03-23T13:07:47;5.20;;;1.08;;
46028;SDS011;31763;48.180;7.904;2024-03-23T13:10:13;3.35;;;0.70;;
46028;SDS011;31763;48.180;7.904;2024-03-23T13:12:41;2.10;;;0.77;;
46028;SDS011;31763;48.180;7.904;2024-03-23T13:15:08;1.70;;;0.93;;
46028;SDS011;31763;48.180;7.904;2024-03-23T13:17:34;2.97;;;1.23;;
46028;SDS011;31763;48.180;7.904;2024-03-23T13:20:00;2.58;;;0.90;;
46028;SDS011;31763;48.180;7.904;2024-03-23T13:22:28;2.55;;;0.75;;
46028;SDS011;31763;48.180;7.904;2024-03-23T13:24:55;6.80;;;2.78;;
46028;SDS011;31763;48.180;7.904;2024-03-23T13:27:21;5.75;;;1.40;;
46028;SDS011;31763;48.180;7.904;2024-03-23T13:29:48;5.22;;;0.85;;
46028;SDS011;31763;48.180;7.904;2024-03-23T13:32:15;2.70;;;1.00;;
46028;SDS011;31763;48.180;7.904;2024-03-23T13:34:41;5.10;;;1.35;;
46028;SDS011;31763;48.180;7.904;2024-03-23T13:37:08;1.50;;;0.60;;
46028;SDS011;31763;48.180;7.904;2024-03-23T13:39:35;6.20;;;0.80;;
46028;SDS011;31763;48.180;7.904;2024-03-23T13:42:01;2.03;;;0.70;;
46028;SDS011;31763;48.180;7.904;2024-03-23T13:44:28;2.03;;;0.95;;
46028;SDS011;31763;48.180;7.904;2024-03-23T13:46:55;4.65;;;0.70;;
46028;SDS011;31763;48.180;7.904;2024-03-23T13:49:25;3.63;;;0.95;;
46028;SDS011;31763;48.180;7.904;2024-03-23T13:51:56;3.78;;;1.35;;
46028;SDS011;31763;48.180;7.904;2024-03-23T13:54:23;3.08;;;0.75;;
46028;SDS011;31763;48.180;7.904;2024-03-23T13:56:50;6.75;;;1.17;;
46028;SDS011;31763;48.180;7.904;2024-03-23T13:59:17;7.93;;;0.95;;
46028;SDS011;31763;48.180;7.904;2024-03-23T14:01:44;11.98;;;6.38;;
46028;SDS011;31763;48.180;7.904;2024-03-23T14:04:11;2.97;;;0.80;;
46028;SDS011;31763;48.180;7.904;2024-03-23T14:06:38;5.50;;;1.23;;
46028;SDS011;31763;48.180;7.904;2024-03-23T14:09:05;1.33;;;0.40;;
46028;SDS011;31763;48.180;7.904;2024-03-23T14:11:34;14.85;;;5.05;;
46028;SDS011;31763;48.180;7.904;2024-03-23T14:14:02;2.83;;;1.88;;
46028;SDS011;31763;48.180;7.904;2024-03-23T14:16:29;5.45;;;1.40;;
46028;SDS011;31763;48.180;7.904;2024-03-23T14:18:56;6.05;;;1.00;;
46028;SDS011;31763;48.180;7.904;2024-03-23T14:21:22;4.00;;;0.80;;
46028;SDS011;31763;48.180;7.904;2024-03-23T14:23:49;4.18;;;1.30;;
46028;SDS011;31763;48.180;7.904;2024-03-23T14:26:15;2.20;;;0.85;;
46028;SDS011;31763;48.180;7.904;2024-03-23T14:28:41;3.42;;;0.45;;
46028;SDS011;31763;48.180;7.904;2024-03-23T14:31:08;2.88;;;0.73;;
46028;SDS011;31763;48.180;7.904;2024-03-23T14:33:39;6.35;;;1.80;;
46028;SDS011;31763;48.180;7.904;2024-03-23T14:36:23;4.63;;;0.85;;
46028;SDS011;31763;48.180;7.904;2024-03-23T14:38:50;3.00;;;0.73;;
46028;SDS011;31763;48.180;7.904;2024-03-23T14:41:17;2.88;;;1.13;;
46028;SDS011;31763;48.180;7.904;2024-03-23T14:43:43;5.25;;;1.38;;
46028;SDS011;31763;48.180;7.904;2024-03-23T14:46:12;4.40;;;1.92;;
46028;SDS011;31763;48.180;7.904;2024-03-23T14:48:39;6.35;;;1.92;;
46028;SDS011;31763;48.180;7.904;2024-03-23T14:51:07;5.03;;;1.77;;
46028;SDS011;31763;48.180;7.904;2024-03-23T14:53:34;1.95;;;0.70;;
46028;SDS011;31763;48.180;7.904;2024-03-23T14:56:01;3.28;;;1.00;;
46028;SDS011;31763;48.180;7.904;2024-03-23T14:58:29;2.13;;;0.85;;
46028;SDS011;31763;48.180;7.904;2024-03-23T15:01:02;2.15;;;0.73;;
46028;SDS011;31763;48.180;7.904;2024-03-23T15:03:29;2.35;;;0.93;;
46028;SDS011;31763;48.180;7.904;2024-03-23T15:05:56;3.35;;;0.80;;
46028;SDS011;31763;48.180;7.904;2024-03-23T15:08:23;1.05;;;0.40;;
46028;SDS011;31763;48.180;7.904;2024-03-23T15:10:50;1.98;;;0.45;;
46028;SDS011;31763;48.180;7.904;2024-03-23T15:13:16;3.72;;;0.40;;
46028;SDS011;31763;48.180;7.904;2024-03-23T15:15:43;3.08;;;0.98;;
46028;SDS011;31763;48.180;7.904;2024-03-23T15:18:13;2.60;;;0.70;;
46028;SDS011;31763;48.180;7.904;2024-03-23T15:20:54;6.10;;;3.15;;
46028;SDS011;31763;48.180;7.904;2024-03-23T15:23:21;4.77;;;0.83;;
46028;SDS011;31763;48.180;7.904;2024-03-23T15:25:57;4.05;;;0.88;;
46028;SDS011;31763;48.180;7.904;2024-03-23T15:28:24;3.35;;;0.85;;
46028;SDS011;31763;48.180;7.904;2024-03-23T15:31:13;2.63;;;0.60;;
46028;SDS011;31763;48.180;7.904;2024-03-23T15:33:39;2.50;;;0.40;;
46028;SDS011;31763;48.180;7.904;2024-03-23T15:36:06;2.78;;;0.80;;
46028;SDS011;31763;48.180;7.904;2024-03-23T15:38:32;0.82;;;0.38;;
46028;SDS011;31763;48.180;7.904;2024-03-23T15:40:59;1.98;;;0.40;;
46028;SDS011;31763;48.180;7.904;2024-03-23T15:43:25;0.77;;;0.35;;
46028;SDS011;31763;48.180;7.904;2024-03-23T15:48:40;0.45;;;0.35;;
46028;SDS011;31763;48.180;7.904;2024-03-23T15:51:11;1.20;;;0.40;;
46028;SDS011;31763;48.180;7.904;2024-03-23T15:53:37;1.10;;;0.30;;
46028;SDS011;31763;48.180;7.904;2024-03-23T15:56:04;0.77;;;0.35;;
46028;SDS011;31763;48.180;7.904;2024-03-23T15:58:30;4.15;;;0.55;;
46028;SDS011;31763;48.180;7.904;2024-03-23T16:00:58;2.95;;;0.40;;